sensor_id;sensor_type;location;lat;lon;timestamp;temperature;humidity
5258;DHT22;2651;51.594;9.928;2022-11-14T00:00:42;4.00;99.90
5258;DHT22;2651;51.594;9.928;2022-11-14T00:01:44;4.00;99.90
5258;DHT22;2651;51.594;9.928;2022-11-14T00:02:46;4.00;99.90
5258;DHT22;2651;51.594;9.928;2022-11-14T00:03:50;3.90;99.90
5258;DHT22;2651;51.594;9.928;2022-11-14T00:04:52;4.00;99.90
5258;DHT22;2651;51.594;9.928;2022-11-14T00:05:54;3.90;99.90
5258;DHT22;2651;51.594;9.928;2022-11-14T00:06:55;3.90;99.90
5258;DHT22;2651;51.594;9.928;2022-11-14T00:07:57;3.90;99.90
5258;DHT22;2651;51.594;9.928;2022-11-14T00:08:59;3.90;99.90
5258;DHT22;2651;51.594;9.928;2022-11-14T00:10:00;3.80;99.90
5258;DHT22;2651;51.594;9.928;2022-11-14T00:11:02;3.70;99.90
5258;DHT22;2651;51.594;9.928;2022-11-14T00:12:04;3.70;99.90
5258;DHT22;2651;51.594;9.928;2022-11-14T00:13:06;3.60;99.90
5258;DHT22;2651;51.594;9.928;2022-11-14T00:14:09;3.60;99.90
5258;DHT22;2651;51.594;9.928;2022-11-14T00:15:11;3.50;99.90
5258;DHT22;2651;51.594;9.928;2022-11-14T00:16:13;3.40;99.90
5258;DHT22;2651;51.594;9.928;2022-11-14T00:17:15;3.40;99.90
5258;DHT22;2651;51.594;9.928;2022-11-14T00:18:17;3.40;99.90
5258;DHT22;2651;51.594;9.928;2022-11-14T00:19:19;3.30;99.90
5258;DHT22;2651;51.594;9.928;2022-11-14T00:20:20;3.40;99.90
5258;DHT22;2651;51.594;9.928;2022-11-14T00:21:22;3.40;99.90
5258;DHT22;2651;51.594;9.928;2022-11-14T00:22:25;3.40;99.90
5258;DHT22;2651;51.594;9.928;2022-11-14T00:23:26;3.40;99.90
5258;DHT22;2651;51.594;9.928;2022-11-14T00:24:28;3.50;99.90
5258;DHT22;2651;51.594;9.928;2022-11-14T00:25:31;3.60;99.90
5258;DHT22;2651;51.594;9.928;2022-11-14T00:26:32;3.60;99.90
5258;DHT22;2651;51.594;9.928;2022-11-14T00:27:34;3.60;99.90
5258;DHT22;2651;51.594;9.928;2022-11-14T00:28:36;3.60;99.90
5258;DHT22;2651;51.594;9.928;2022-11-14T00:29:37;3.60;99.90
5258;DHT22;2651;51.594;9.928;2022-11-14T00:30:39;3.70;99.90
5258;DHT22;2651;51.594;9.928;2022-11-14T00:31:41;3.60;99.90
5258;DHT22;2651;51.594;9.928;2022-11-14T00:32:42;3.60;99.90
5258;DHT22;2651;51.594;9.928;2022-11-14T00:33:44;3.60;99.90
5258;DHT22;2651;51.594;9.928;2022-11-14T00:34:46;3.60;99.90
5258;DHT22;2651;51.594;9.928;2022-11-14T00:35:54;3.60;99.90
5258;DHT22;2651;51.594;9.928;2022-11-14T00:36:56;3.60;99.90
5258;DHT22;2651;51.594;9.928;2022-11-14T00:37:58;3.60;99.90
5258;DHT22;2651;51.594;9.928;2022-11-14T00:38:59;3.60;99.90
5258;DHT22;2651;51.594;9.928;2022-11-14T00:40:01;3.60;99.90
5258;DHT22;2651;51.594;9.928;2022-11-14T00:41:03;3.60;99.90
5258;DHT22;2651;51.594;9.928;2022-11-14T00:42:05;3.60;99.90
5258;DHT22;2651;51.594;9.928;2022-11-14T00:43:07;3.60;99.90
5258;DHT22;2651;51.594;9.928;2022-11-14T00:44:08;3.60;99.90
5258;DHT22;2651;51.594;9.928;2022-11-14T00:45:11;3.60;99.90
5258;DHT22;2651;51.594;9.928;2022-11-14T00:46:13;3.60;99.90
5258;DHT22;2651;51.594;9.928;2022-11-14T00:47:15;3.60;99.90
5258;DHT22;2651;51.594;9.928;2022-11-14T00:48:16;3.60;99.90
5258;DHT22;2651;51.594;9.928;2022-11-14T00:49:18;3.50;99.90
5258;DHT22;2651;51.594;9.928;2022-11-14T00:50:20;3.50;99.90
5258;DHT22;2651;51.594;9.928;2022-11-14T00:51:21;3.60;99.90
5258;DHT22;2651;51.594;9.928;2022-11-14T00:52:23;3.60;99.90
5258;DHT22;2651;51.594;9.928;2022-11-14T00:53:25;3.50;99.90
5258;DHT22;2651;51.594;9.928;2022-11-14T00:54:26;3.60;99.90
5258;DHT22;2651;51.594;9.928;2022-11-14T00:55:28;3.50;99.90
5258;DHT22;2651;51.594;9.928;2022-11-14T00:56:29;3.60;99.90
5258;DHT22;2651;51.594;9.928;2022-11-14T00:57:31;3.60;99.90
5258;DHT22;2651;51.594;9.928;2022-11-14T00:58:33;3.50;99.90
5258;DHT22;2651;51.594;9.928;2022-11-14T00:59:35;3.50;99.90
5258;DHT22;2651;51.594;9.928;2022-11-14T01:00:37;3.50;99.90
5258;DHT22;2651;51.594;9.928;2022-11-14T01:01:38;3.50;99.90
5258;DHT22;2651;51.594;9.928;2022-11-14T01:02:40;3.40;99.90
5258;DHT22;2651;51.594;9.928;2022-11-14T01:03:42;3.40;99.90
5258;DHT22;2651;51.594;9.928;2022-11-14T01:04:43;3.30;99.90
5258;DHT22;2651;51.594;9.928;2022-11-14T01:05:48;3.30;99.90
5258;DHT22;2651;51.594;9.928;2022-11-14T01:06:50;3.30;99.90
5258;DHT22;2651;51.594;9.928;2022-11-14T01:07:51;3.30;99.90
5258;DHT22;2651;51.594;9.928;2022-11-14T01:08:53;3.40;99.90
5258;DHT22;2651;51.594;9.928;2022-11-14T01:09:55;3.30;99.90
5258;DHT22;2651;51.594;9.928;2022-11-14T01:10:56;3.30;99.90
5258;DHT22;2651;51.594;9.928;2022-11-14T01:11:59;3.30;99.90
5258;DHT22;2651;51.594;9.928;2022-11-14T01:13:01;3.30;99.90
5258;DHT22;2651;51.594;9.928;2022-11-14T01:14:05;3.30;99.90
5258;DHT22;2651;51.594;9.928;2022-11-14T01:15:08;3.30;99.90
5258;DHT22;2651;51.594;9.928;2022-11-14T01:16:10;3.30;99.90
5258;DHT22;2651;51.594;9.928;2022-11-14T01:17:12;3.30;99.90
5258;DHT22;2651;51.594;9.928;2022-11-14T01:18:17;3.40;99.90
5258;DHT22;2651;51.594;9.928;2022-11-14T01:19:19;3.40;99.90
5258;DHT22;2651;51.594;9.928;2022-11-14T01:20:20;3.40;99.90
5258;DHT22;2651;51.594;9.928;2022-11-14T01:21:22;3.30;99.90
5258;DHT22;2651;51.594;9.928;2022-11-14T01:22:24;3.30;99.90
5258;DHT22;2651;51.594;9.928;2022-11-14T01:23:26;3.40;99.90
5258;DHT22;2651;51.594;9.928;2022-11-14T01:24:28;3.40;99.90
5258;DHT22;2651;51.594;9.928;2022-11-14T01:25:32;3.40;99.90
5258;DHT22;2651;51.594;9.928;2022-11-14T01:26:34;3.40;99.90
5258;DHT22;2651;51.594;9.928;2022-11-14T01:27:36;3.40;99.90
5258;DHT22;2651;51.594;9.928;2022-11-14T01:28:38;3.50;99.90
5258;DHT22;2651;51.594;9.928;2022-11-14T01:29:40;3.50;99.90
5258;DHT22;2651;51.594;9.928;2022-11-14T01:30:42;3.40;99.90
5258;DHT22;2651;51.594;9.928;2022-11-14T01:31:43;3.40;99.90
5258;DHT22;2651;51.594;9.928;2022-11-14T01:32:45;3.40;99.90
5258;DHT22;2651;51.594;9.928;2022-11-14T01:33:50;3.50;99.90
5258;DHT22;2651;51.594;9.928;2022-11-14T01:34:52;3.50;99.90
5258;DHT22;2651;51.594;9.928;2022-11-14T01:35:58;3.50;99.90
5258;DHT22;2651;51.594;9.928;2022-11-14T01:37:00;3.60;99.90
5258;DHT22;2651;51.594;9.928;2022-11-14T01:38:03;3.60;99.90
5258;DHT22;2651;51.594;9.928;2022-11-14T01:39:05;3.60;99.90
5258;DHT22;2651;51.594;9.928;2022-11-14T01:40:07;3.60;99.90
5258;DHT22;2651;51.594;9.928;2022-11-14T01:41:13;3.60;99.90
5258;DHT22;2651;51.594;9.928;2022-11-14T01:42:15;3.70;99.90
5258;DHT22;2651;51.594;9.928;2022-11-14T01:44:51;3.70;99.90
5258;DHT22;2651;51.594;9.928;2022-11-14T01:47:00;3.70;99.90
5258;DHT22;2651;51.594;9.928;2022-11-14T01:48:02;3.60;99.90
5258;DHT22;2651;51.594;9.928;2022-11-14T01:49:33;3.70;99.90
5258;DHT22;2651;51.594;9.928;2022-11-14T01:50:36;3.70;99.90
5258;DHT22;2651;51.594;9.928;2022-11-14T01:51:49;3.70;99.90
5258;DHT22;2651;51.594;9.928;2022-11-14T01:52:51;3.70;99.90
5258;DHT22;2651;51.594;9.928;2022-11-14T01:53:55;3.70;99.90
5258;DHT22;2651;51.594;9.928;2022-11-14T01:55:00;3.70;99.90
5258;DHT22;2651;51.594;9.928;2022-11-14T01:56:03;3.80;99.90
5258;DHT22;2651;51.594;9.928;2022-11-14T01:57:07;3.80;99.90
5258;DHT22;2651;51.594;9.928;2022-11-14T01:58:09;3.70;99.90
5258;DHT22;2651;51.594;9.928;2022-11-14T01:59:15;3.70;99.90
5258;DHT22;2651;51.594;9.928;2022-11-14T02:00:17;3.70;99.90
5258;DHT22;2651;51.594;9.928;2022-11-14T02:01:19;3.80;99.90
5258;DHT22;2651;51.594;9.928;2022-11-14T02:02:23;3.80;99.90
5258;DHT22;2651;51.594;9.928;2022-11-14T02:03:25;3.90;99.90
5258;DHT22;2651;51.594;9.928;2022-11-14T02:04:31;3.90;99.90
5258;DHT22;2651;51.594;9.928;2022-11-14T02:05:34;4.00;99.90
5258;DHT22;2651;51.594;9.928;2022-11-14T02:06:37;4.00;99.90
5258;DHT22;2651;51.594;9.928;2022-11-14T02:07:40;4.10;99.90
5258;DHT22;2651;51.594;9.928;2022-11-14T02:08:42;4.10;99.90
5258;DHT22;2651;51.594;9.928;2022-11-14T02:09:46;4.10;99.90
5258;DHT22;2651;51.594;9.928;2022-11-14T02:10:48;4.10;99.90
5258;DHT22;2651;51.594;9.928;2022-11-14T02:11:52;4.00;99.90
5258;DHT22;2651;51.594;9.928;2022-11-14T02:12:55;4.00;99.90
5258;DHT22;2651;51.594;9.928;2022-11-14T02:13:57;4.00;99.90
5258;DHT22;2651;51.594;9.928;2022-11-14T02:15:00;4.00;99.90
5258;DHT22;2651;51.594;9.928;2022-11-14T02:16:02;3.90;99.90
5258;DHT22;2651;51.594;9.928;2022-11-14T02:17:04;3.90;99.90
5258;DHT22;2651;51.594;9.928;2022-11-14T02:18:25;3.90;99.90
5258;DHT22;2651;51.594;9.928;2022-11-14T02:19:47;3.90;99.90
5258;DHT22;2651;51.594;9.928;2022-11-14T02:20:48;3.80;99.90
5258;DHT22;2651;51.594;9.928;2022-11-14T02:21:50;3.90;99.90
5258;DHT22;2651;51.594;9.928;2022-11-14T02:22:52;3.90;99.90
5258;DHT22;2651;51.594;9.928;2022-11-14T02:23:53;3.80;99.90
5258;DHT22;2651;51.594;9.928;2022-11-14T02:24:55;3.90;99.90
5258;DHT22;2651;51.594;9.928;2022-11-14T02:25:57;3.90;99.90
5258;DHT22;2651;51.594;9.928;2022-11-14T02:26:59;3.90;99.90
5258;DHT22;2651;51.594;9.928;2022-11-14T02:28:01;3.90;99.90
5258;DHT22;2651;51.594;9.928;2022-11-14T02:29:05;3.90;99.90
5258;DHT22;2651;51.594;9.928;2022-11-14T02:30:15;3.90;99.90
5258;DHT22;2651;51.594;9.928;2022-11-14T02:31:17;3.90;99.90
5258;DHT22;2651;51.594;9.928;2022-11-14T02:32:18;3.90;99.90
5258;DHT22;2651;51.594;9.928;2022-11-14T02:33:20;3.90;99.90
5258;DHT22;2651;51.594;9.928;2022-11-14T02:34:22;3.90;99.90
5258;DHT22;2651;51.594;9.928;2022-11-14T02:35:23;3.80;99.90
5258;DHT22;2651;51.594;9.928;2022-11-14T02:36:25;3.80;99.90
5258;DHT22;2651;51.594;9.928;2022-11-14T02:37:27;3.80;99.90
5258;DHT22;2651;51.594;9.928;2022-11-14T02:38:29;3.80;99.90
5258;DHT22;2651;51.594;9.928;2022-11-14T02:39:31;3.80;99.90
5258;DHT22;2651;51.594;9.928;2022-11-14T02:40:33;3.70;99.90
5258;DHT22;2651;51.594;9.928;2022-11-14T02:41:34;3.70;99.90
5258;DHT22;2651;51.594;9.928;2022-11-14T02:42:36;3.60;99.90
5258;DHT22;2651;51.594;9.928;2022-11-14T02:43:38;3.60;99.90
5258;DHT22;2651;51.594;9.928;2022-11-14T02:44:39;3.50;99.90
5258;DHT22;2651;51.594;9.928;2022-11-14T02:45:41;3.50;99.90
5258;DHT22;2651;51.594;9.928;2022-11-14T02:46:43;3.50;99.90
5258;DHT22;2651;51.594;9.928;2022-11-14T02:47:45;3.50;99.90
5258;DHT22;2651;51.594;9.928;2022-11-14T02:48:47;3.40;99.90
5258;DHT22;2651;51.594;9.928;2022-11-14T02:49:49;3.30;99.90
5258;DHT22;2651;51.594;9.928;2022-11-14T02:50:50;3.20;99.90
5258;DHT22;2651;51.594;9.928;2022-11-14T02:51:52;3.20;99.90
5258;DHT22;2651;51.594;9.928;2022-11-14T02:52:54;3.30;99.90
5258;DHT22;2651;51.594;9.928;2022-11-14T02:53:56;3.30;99.90
5258;DHT22;2651;51.594;9.928;2022-11-14T02:54:57;3.20;99.90
5258;DHT22;2651;51.594;9.928;2022-11-14T02:55:59;3.20;99.90
5258;DHT22;2651;51.594;9.928;2022-11-14T02:57:00;3.10;99.90
5258;DHT22;2651;51.594;9.928;2022-11-14T02:58:02;3.20;99.90
5258;DHT22;2651;51.594;9.928;2022-11-14T02:59:04;3.10;99.90
5258;DHT22;2651;51.594;9.928;2022-11-14T03:00:06;3.20;99.90
5258;DHT22;2651;51.594;9.928;2022-11-14T03:01:14;3.20;99.90
5258;DHT22;2651;51.594;9.928;2022-11-14T03:02:22;3.30;99.90
5258;DHT22;2651;51.594;9.928;2022-11-14T03:03:23;3.30;99.90
5258;DHT22;2651;51.594;9.928;2022-11-14T03:04:25;3.30;99.90
5258;DHT22;2651;51.594;9.928;2022-11-14T03:05:27;3.30;99.90
5258;DHT22;2651;51.594;9.928;2022-11-14T03:06:28;3.20;99.90
5258;DHT22;2651;51.594;9.928;2022-11-14T03:07:30;3.20;99.90
5258;DHT22;2651;51.594;9.928;2022-11-14T03:08:32;3.20;99.90
5258;DHT22;2651;51.594;9.928;2022-11-14T03:09:33;3.20;99.90
5258;DHT22;2651;51.594;9.928;2022-11-14T03:10:35;3.20;99.90
5258;DHT22;2651;51.594;9.928;2022-11-14T03:11:38;3.20;99.90
5258;DHT22;2651;51.594;9.928;2022-11-14T03:12:39;3.30;99.90
5258;DHT22;2651;51.594;9.928;2022-11-14T03:13:41;3.30;99.90
5258;DHT22;2651;51.594;9.928;2022-11-14T03:14:43;3.20;99.90
5258;DHT22;2651;51.594;9.928;2022-11-14T03:15:45;3.20;99.90
5258;DHT22;2651;51.594;9.928;2022-11-14T03:16:46;3.10;99.90
5258;DHT22;2651;51.594;9.928;2022-11-14T03:17:49;3.20;99.90
5258;DHT22;2651;51.594;9.928;2022-11-14T03:18:50;3.20;99.90
5258;DHT22;2651;51.594;9.928;2022-11-14T03:19:52;3.20;99.90
5258;DHT22;2651;51.594;9.928;2022-11-14T03:20:54;3.20;99.90
5258;DHT22;2651;51.594;9.928;2022-11-14T03:21:55;3.20;99.90
5258;DHT22;2651;51.594;9.928;2022-11-14T03:22:57;3.10;99.90
5258;DHT22;2651;51.594;9.928;2022-11-14T03:23:58;3.10;99.90
5258;DHT22;2651;51.594;9.928;2022-11-14T03:25:00;3.20;99.90
5258;DHT22;2651;51.594;9.928;2022-11-14T03:26:04;3.20;99.90
5258;DHT22;2651;51.594;9.928;2022-11-14T03:27:06;3.20;99.90
5258;DHT22;2651;51.594;9.928;2022-11-14T03:28:08;3.20;99.90
5258;DHT22;2651;51.594;9.928;2022-11-14T03:29:10;3.20;99.90
5258;DHT22;2651;51.594;9.928;2022-11-14T03:30:12;3.20;99.90
5258;DHT22;2651;51.594;9.928;2022-11-14T03:31:14;3.10;99.90
5258;DHT22;2651;51.594;9.928;2022-11-14T03:32:15;3.10;99.90
5258;DHT22;2651;51.594;9.928;2022-11-14T03:33:17;3.20;99.90
5258;DHT22;2651;51.594;9.928;2022-11-14T03:34:19;3.20;99.90
5258;DHT22;2651;51.594;9.928;2022-11-14T03:35:20;3.30;99.90
5258;DHT22;2651;51.594;9.928;2022-11-14T03:36:22;3.30;99.90
5258;DHT22;2651;51.594;9.928;2022-11-14T03:37:24;3.30;99.90
5258;DHT22;2651;51.594;9.928;2022-11-14T03:38:26;3.30;99.90
5258;DHT22;2651;51.594;9.928;2022-11-14T03:39:28;3.30;99.90
5258;DHT22;2651;51.594;9.928;2022-11-14T03:40:30;3.40;99.90
5258;DHT22;2651;51.594;9.928;2022-11-14T03:41:31;3.40;99.90
5258;DHT22;2651;51.594;9.928;2022-11-14T03:42:34;3.50;99.90
5258;DHT22;2651;51.594;9.928;2022-11-14T03:43:36;3.40;99.90
5258;DHT22;2651;51.594;9.928;2022-11-14T03:44:38;3.40;99.90
5258;DHT22;2651;51.594;9.928;2022-11-14T03:45:39;3.50;99.90
5258;DHT22;2651;51.594;9.928;2022-11-14T03:46:41;3.50;99.90
5258;DHT22;2651;51.594;9.928;2022-11-14T03:47:43;3.50;99.90
5258;DHT22;2651;51.594;9.928;2022-11-14T03:48:44;3.50;99.90
5258;DHT22;2651;51.594;9.928;2022-11-14T03:49:46;3.50;99.90
5258;DHT22;2651;51.594;9.928;2022-11-14T03:50:47;3.50;99.90
5258;DHT22;2651;51.594;9.928;2022-11-14T03:51:49;3.50;99.90
5258;DHT22;2651;51.594;9.928;2022-11-14T03:52:51;3.50;99.90
5258;DHT22;2651;51.594;9.928;2022-11-14T03:53:52;3.50;99.90
5258;DHT22;2651;51.594;9.928;2022-11-14T03:54:54;3.40;99.90
5258;DHT22;2651;51.594;9.928;2022-11-14T03:55:56;3.40;99.90
5258;DHT22;2651;51.594;9.928;2022-11-14T03:56:58;3.40;99.90
5258;DHT22;2651;51.594;9.928;2022-11-14T03:57:59;3.40;99.90
5258;DHT22;2651;51.594;9.928;2022-11-14T03:59:01;3.40;99.90
5258;DHT22;2651;51.594;9.928;2022-11-14T04:00:03;3.40;99.90
5258;DHT22;2651;51.594;9.928;2022-11-14T04:01:05;3.40;99.90
5258;DHT22;2651;51.594;9.928;2022-11-14T04:02:06;3.40;99.90
5258;DHT22;2651;51.594;9.928;2022-11-14T04:03:09;3.40;99.90
5258;DHT22;2651;51.594;9.928;2022-11-14T04:04:11;3.50;99.90
5258;DHT22;2651;51.594;9.928;2022-11-14T04:05:13;3.40;99.90
5258;DHT22;2651;51.594;9.928;2022-11-14T04:06:15;3.40;99.90
5258;DHT22;2651;51.594;9.928;2022-11-14T04:07:16;3.40;99.90
5258;DHT22;2651;51.594;9.928;2022-11-14T04:08:18;3.40;99.90
5258;DHT22;2651;51.594;9.928;2022-11-14T04:09:20;3.40;99.90
5258;DHT22;2651;51.594;9.928;2022-11-14T04:10:21;3.40;99.90
5258;DHT22;2651;51.594;9.928;2022-11-14T04:11:23;3.40;99.90
5258;DHT22;2651;51.594;9.928;2022-11-14T04:12:25;3.30;99.90
5258;DHT22;2651;51.594;9.928;2022-11-14T04:13:26;3.30;99.90
5258;DHT22;2651;51.594;9.928;2022-11-14T04:14:28;3.20;99.90
5258;DHT22;2651;51.594;9.928;2022-11-14T04:15:30;3.20;99.90
5258;DHT22;2651;51.594;9.928;2022-11-14T04:16:31;3.10;99.90
5258;DHT22;2651;51.594;9.928;2022-11-14T04:17:33;3.10;99.90
5258;DHT22;2651;51.594;9.928;2022-11-14T04:18:40;3.00;99.90
5258;DHT22;2651;51.594;9.928;2022-11-14T04:19:42;3.00;99.90
5258;DHT22;2651;51.594;9.928;2022-11-14T04:20:43;3.00;99.90
5258;DHT22;2651;51.594;9.928;2022-11-14T04:21:45;3.00;99.90
5258;DHT22;2651;51.594;9.928;2022-11-14T04:22:47;3.00;99.90
5258;DHT22;2651;51.594;9.928;2022-11-14T04:23:48;2.90;99.90
5258;DHT22;2651;51.594;9.928;2022-11-14T04:24:50;2.90;99.90
5258;DHT22;2651;51.594;9.928;2022-11-14T04:25:51;2.90;99.90
5258;DHT22;2651;51.594;9.928;2022-11-14T04:26:53;2.90;99.90
5258;DHT22;2651;51.594;9.928;2022-11-14T04:27:55;2.80;99.90
5258;DHT22;2651;51.594;9.928;2022-11-14T04:28:56;2.80;99.90
5258;DHT22;2651;51.594;9.928;2022-11-14T04:29:58;2.80;99.90
5258;DHT22;2651;51.594;9.928;2022-11-14T04:31:00;2.80;99.90
5258;DHT22;2651;51.594;9.928;2022-11-14T04:32:02;2.70;99.90
5258;DHT22;2651;51.594;9.928;2022-11-14T04:33:04;2.70;99.90
5258;DHT22;2651;51.594;9.928;2022-11-14T04:34:06;2.70;99.90
5258;DHT22;2651;51.594;9.928;2022-11-14T04:35:08;2.60;99.90
5258;DHT22;2651;51.594;9.928;2022-11-14T04:36:09;2.60;99.90
5258;DHT22;2651;51.594;9.928;2022-11-14T04:37:11;2.60;99.90
5258;DHT22;2651;51.594;9.928;2022-11-14T04:38:13;2.60;99.90
5258;DHT22;2651;51.594;9.928;2022-11-14T04:39:14;2.60;99.90
5258;DHT22;2651;51.594;9.928;2022-11-14T04:40:16;2.60;99.90
5258;DHT22;2651;51.594;9.928;2022-11-14T04:41:18;2.70;99.90
5258;DHT22;2651;51.594;9.928;2022-11-14T04:42:19;2.70;99.90
5258;DHT22;2651;51.594;9.928;2022-11-14T04:43:21;2.70;99.90
5258;DHT22;2651;51.594;9.928;2022-11-14T04:44:22;2.70;99.90
5258;DHT22;2651;51.594;9.928;2022-11-14T04:45:24;2.70;99.90
5258;DHT22;2651;51.594;9.928;2022-11-14T04:46:26;2.70;99.90
5258;DHT22;2651;51.594;9.928;2022-11-14T04:47:28;2.70;99.90
5258;DHT22;2651;51.594;9.928;2022-11-14T04:48:29;2.60;99.90
5258;DHT22;2651;51.594;9.928;2022-11-14T04:49:31;2.60;99.90
5258;DHT22;2651;51.594;9.928;2022-11-14T04:50:33;2.60;99.90
5258;DHT22;2651;51.594;9.928;2022-11-14T04:51:35;2.60;99.90
5258;DHT22;2651;51.594;9.928;2022-11-14T04:52:36;2.70;99.90
5258;DHT22;2651;51.594;9.928;2022-11-14T04:53:38;2.70;99.90
5258;DHT22;2651;51.594;9.928;2022-11-14T04:54:40;2.80;99.90
5258;DHT22;2651;51.594;9.928;2022-11-14T04:55:43;2.80;99.90
5258;DHT22;2651;51.594;9.928;2022-11-14T04:56:46;2.80;99.90
5258;DHT22;2651;51.594;9.928;2022-11-14T04:57:52;2.80;99.90
5258;DHT22;2651;51.594;9.928;2022-11-14T04:58:55;2.80;99.90
5258;DHT22;2651;51.594;9.928;2022-11-14T04:59:57;2.70;99.90
5258;DHT22;2651;51.594;9.928;2022-11-14T05:00:58;2.70;99.90
5258;DHT22;2651;51.594;9.928;2022-11-14T05:02:00;2.70;99.90
5258;DHT22;2651;51.594;9.928;2022-11-14T05:03:02;2.70;99.90
5258;DHT22;2651;51.594;9.928;2022-11-14T05:04:04;2.60;99.90
5258;DHT22;2651;51.594;9.928;2022-11-14T05:05:05;2.60;99.90
5258;DHT22;2651;51.594;9.928;2022-11-14T05:06:08;2.50;99.90
5258;DHT22;2651;51.594;9.928;2022-11-14T05:07:10;2.50;99.90
5258;DHT22;2651;51.594;9.928;2022-11-14T05:08:12;2.50;99.90
5258;DHT22;2651;51.594;9.928;2022-11-14T05:09:13;2.40;99.90
5258;DHT22;2651;51.594;9.928;2022-11-14T05:10:15;2.30;99.90
5258;DHT22;2651;51.594;9.928;2022-11-14T05:11:18;2.30;99.90
5258;DHT22;2651;51.594;9.928;2022-11-14T05:12:20;2.30;99.90
5258;DHT22;2651;51.594;9.928;2022-11-14T05:13:21;2.30;99.90
5258;DHT22;2651;51.594;9.928;2022-11-14T05:14:23;2.40;99.90
5258;DHT22;2651;51.594;9.928;2022-11-14T05:15:25;2.30;99.90
5258;DHT22;2651;51.594;9.928;2022-11-14T05:16:27;2.30;99.90
5258;DHT22;2651;51.594;9.928;2022-11-14T05:17:28;2.30;99.90
5258;DHT22;2651;51.594;9.928;2022-11-14T05:18:30;2.30;99.90
5258;DHT22;2651;51.594;9.928;2022-11-14T05:19:32;2.30;99.90
5258;DHT22;2651;51.594;9.928;2022-11-14T05:20:34;2.30;99.90
5258;DHT22;2651;51.594;9.928;2022-11-14T05:21:36;2.20;99.90
5258;DHT22;2651;51.594;9.928;2022-11-14T05:22:38;2.30;99.90
5258;DHT22;2651;51.594;9.928;2022-11-14T05:23:39;2.30;99.90
5258;DHT22;2651;51.594;9.928;2022-11-14T05:24:41;2.30;99.90
5258;DHT22;2651;51.594;9.928;2022-11-14T05:25:43;2.30;99.90
5258;DHT22;2651;51.594;9.928;2022-11-14T05:26:44;2.40;99.90
5258;DHT22;2651;51.594;9.928;2022-11-14T05:27:46;2.40;99.90
5258;DHT22;2651;51.594;9.928;2022-11-14T05:28:48;2.40;99.90
5258;DHT22;2651;51.594;9.928;2022-11-14T05:29:49;2.50;99.90
5258;DHT22;2651;51.594;9.928;2022-11-14T05:30:51;2.40;99.90
5258;DHT22;2651;51.594;9.928;2022-11-14T05:31:52;2.30;99.90
5258;DHT22;2651;51.594;9.928;2022-11-14T05:32:54;2.30;99.90
5258;DHT22;2651;51.594;9.928;2022-11-14T05:33:56;2.40;99.90
5258;DHT22;2651;51.594;9.928;2022-11-14T05:34:58;2.40;99.90
5258;DHT22;2651;51.594;9.928;2022-11-14T05:36:08;2.40;99.90
5258;DHT22;2651;51.594;9.928;2022-11-14T05:37:10;2.40;99.90
5258;DHT22;2651;51.594;9.928;2022-11-14T05:38:12;2.40;99.90
5258;DHT22;2651;51.594;9.928;2022-11-14T05:39:14;2.30;99.90
5258;DHT22;2651;51.594;9.928;2022-11-14T05:40:15;2.30;99.90
5258;DHT22;2651;51.594;9.928;2022-11-14T05:41:19;2.30;99.90
5258;DHT22;2651;51.594;9.928;2022-11-14T05:42:21;2.40;99.90
5258;DHT22;2651;51.594;9.928;2022-11-14T05:43:23;2.30;99.90
5258;DHT22;2651;51.594;9.928;2022-11-14T05:44:24;2.30;99.90
5258;DHT22;2651;51.594;9.928;2022-11-14T05:45:26;2.20;99.90
5258;DHT22;2651;51.594;9.928;2022-11-14T05:46:28;2.20;99.90
5258;DHT22;2651;51.594;9.928;2022-11-14T05:47:29;2.20;99.90
5258;DHT22;2651;51.594;9.928;2022-11-14T05:48:31;2.10;99.90
5258;DHT22;2651;51.594;9.928;2022-11-14T05:49:33;2.10;99.90
5258;DHT22;2651;51.594;9.928;2022-11-14T05:50:35;2.00;99.90
5258;DHT22;2651;51.594;9.928;2022-11-14T05:51:37;2.10;99.90
5258;DHT22;2651;51.594;9.928;2022-11-14T05:52:38;2.10;99.90
5258;DHT22;2651;51.594;9.928;2022-11-14T05:53:40;2.10;99.90
5258;DHT22;2651;51.594;9.928;2022-11-14T05:54:42;2.00;99.90
5258;DHT22;2651;51.594;9.928;2022-11-14T05:55:43;1.90;99.90
5258;DHT22;2651;51.594;9.928;2022-11-14T05:56:45;1.90;99.90
5258;DHT22;2651;51.594;9.928;2022-11-14T05:57:47;2.00;99.90
5258;DHT22;2651;51.594;9.928;2022-11-14T05:58:48;2.10;99.90
5258;DHT22;2651;51.594;9.928;2022-11-14T05:59:50;2.10;99.90
5258;DHT22;2651;51.594;9.928;2022-11-14T06:00:52;2.10;99.90
5258;DHT22;2651;51.594;9.928;2022-11-14T06:01:55;2.00;99.90
5258;DHT22;2651;51.594;9.928;2022-11-14T06:02:57;2.00;99.90
5258;DHT22;2651;51.594;9.928;2022-11-14T06:03:58;2.00;99.90
5258;DHT22;2651;51.594;9.928;2022-11-14T06:05:00;2.10;99.90
5258;DHT22;2651;51.594;9.928;2022-11-14T06:06:03;2.20;99.90
5258;DHT22;2651;51.594;9.928;2022-11-14T06:07:05;2.20;99.90
5258;DHT22;2651;51.594;9.928;2022-11-14T06:08:07;2.10;99.90
5258;DHT22;2651;51.594;9.928;2022-11-14T06:09:08;2.10;99.90
5258;DHT22;2651;51.594;9.928;2022-11-14T06:10:10;2.10;99.90
5258;DHT22;2651;51.594;9.928;2022-11-14T06:11:15;2.20;99.90
5258;DHT22;2651;51.594;9.928;2022-11-14T06:12:17;2.20;99.90
5258;DHT22;2651;51.594;9.928;2022-11-14T06:13:18;2.20;99.90
5258;DHT22;2651;51.594;9.928;2022-11-14T06:14:20;2.20;99.90
5258;DHT22;2651;51.594;9.928;2022-11-14T06:15:22;2.30;99.90
5258;DHT22;2651;51.594;9.928;2022-11-14T06:16:23;2.30;99.90
5258;DHT22;2651;51.594;9.928;2022-11-14T06:17:25;2.30;99.90
5258;DHT22;2651;51.594;9.928;2022-11-14T06:18:28;2.30;99.90
5258;DHT22;2651;51.594;9.928;2022-11-14T06:19:31;2.20;99.90
5258;DHT22;2651;51.594;9.928;2022-11-14T06:20:32;2.20;99.90
5258;DHT22;2651;51.594;9.928;2022-11-14T06:21:34;2.20;99.90
5258;DHT22;2651;51.594;9.928;2022-11-14T06:22:35;2.20;99.90
5258;DHT22;2651;51.594;9.928;2022-11-14T06:23:38;2.20;99.90
5258;DHT22;2651;51.594;9.928;2022-11-14T06:24:39;2.20;99.90
5258;DHT22;2651;51.594;9.928;2022-11-14T06:25:41;2.20;99.90
5258;DHT22;2651;51.594;9.928;2022-11-14T06:26:43;2.20;99.90
5258;DHT22;2651;51.594;9.928;2022-11-14T06:27:44;2.20;99.90
5258;DHT22;2651;51.594;9.928;2022-11-14T06:28:47;2.20;99.90
5258;DHT22;2651;51.594;9.928;2022-11-14T06:29:49;2.20;99.90
5258;DHT22;2651;51.594;9.928;2022-11-14T06:30:51;2.30;99.90
5258;DHT22;2651;51.594;9.928;2022-11-14T06:31:56;2.30;99.90
5258;DHT22;2651;51.594;9.928;2022-11-14T06:32:58;2.30;99.90
5258;DHT22;2651;51.594;9.928;2022-11-14T06:34:00;2.30;99.90
5258;DHT22;2651;51.594;9.928;2022-11-14T06:35:01;2.40;99.90
5258;DHT22;2651;51.594;9.928;2022-11-14T06:36:05;2.40;99.90
5258;DHT22;2651;51.594;9.928;2022-11-14T06:37:07;2.30;99.90
5258;DHT22;2651;51.594;9.928;2022-11-14T06:38:09;2.30;99.90
5258;DHT22;2651;51.594;9.928;2022-11-14T06:39:10;2.30;99.90
5258;DHT22;2651;51.594;9.928;2022-11-14T06:40:12;2.30;99.90
5258;DHT22;2651;51.594;9.928;2022-11-14T06:41:16;2.30;99.90
5258;DHT22;2651;51.594;9.928;2022-11-14T06:42:18;2.30;99.90
5258;DHT22;2651;51.594;9.928;2022-11-14T06:43:19;2.30;99.90
5258;DHT22;2651;51.594;9.928;2022-11-14T06:44:21;2.30;99.90
5258;DHT22;2651;51.594;9.928;2022-11-14T06:45:31;2.30;99.90
5258;DHT22;2651;51.594;9.928;2022-11-14T06:46:32;2.20;99.90
5258;DHT22;2651;51.594;9.928;2022-11-14T06:47:34;2.20;99.90
5258;DHT22;2651;51.594;9.928;2022-11-14T06:48:36;2.10;99.90
5258;DHT22;2651;51.594;9.928;2022-11-14T06:49:38;2.10;99.90
5258;DHT22;2651;51.594;9.928;2022-11-14T06:50:41;2.20;99.90
5258;DHT22;2651;51.594;9.928;2022-11-14T06:51:43;2.20;99.90
5258;DHT22;2651;51.594;9.928;2022-11-14T06:52:44;2.20;99.90
5258;DHT22;2651;51.594;9.928;2022-11-14T06:53:46;2.20;99.90
5258;DHT22;2651;51.594;9.928;2022-11-14T06:54:48;2.20;99.90
5258;DHT22;2651;51.594;9.928;2022-11-14T06:57:01;2.30;99.90